Time;durP1;ratioP1;P1;durP2;ratioP2;P2;SDS_P1;SDS_P2;PMS_P1;PMS_P2;Temp;Humidity;BMP_temperature;BMP_pressure;BME280_temperature;BME280_humidity;BME280_pressure;Samples;Min_cycle;Max_cycle;Signal;HPM_P1;HPM_P2
2021/04/24 16:12:23;;;;;;;7.67;4.57;;;22.10;72.60;;;;;;5112704;27;20493;-78
2021/04/24 16:14:49;;;;;;;5.07;4.40;;;21.80;74.00;;;;;;5111533;28;20701;-78
2021/04/24 16:17:15;;;;;;;5.77;4.80;;;21.70;75.60;;;;;;5110737;28;20236;-78
2021/04/24 16:19:42;;;;;;;10.40;3.90;;;21.70;75.40;;;;;;5110295;28;20175;-78
2021/04/24 16:22:08;;;;;;;5.47;4.33;;;21.60;75.30;;;;;;5109292;28;20175;-79
2021/04/24 16:24:33;;;;;;;4.93;3.97;;;21.70;76.60;;;;;;5114215;28;20245;-78
2021/04/24 16:26:59;;;;;;;4.60;4.20;;;21.60;73.90;;;;;;5095864;28;20214;-78
2021/04/24 16:29:24;;;;;;;6.13;4.20;;;21.60;77.80;;;;;;5112832;28;20255;-78
2021/04/24 16:31:50;;;;;;;4.90;3.60;;;21.60;76.80;;;;;;5114162;28;20263;-79
2021/04/24 16:34:16;;;;;;;5.60;3.63;;;21.70;79.20;;;;;;5114659;28;20190;-78
2021/04/24 16:36:41;;;;;;;7.40;4.00;;;21.60;74.30;;;;;;5095238;28;20200;-79
2021/04/24 16:39:07;;;;;;;4.50;3.97;;;21.50;75.50;;;;;;5113825;28;20184;-78
2021/04/24 16:41:33;;;;;;;7.27;4.20;;;21.50;77.10;;;;;;5113807;28;20664;-78
2021/04/24 16:43:59;;;;;;;4.60;4.20;;;21.20;73.90;;;;;;5113810;28;20226;-78
2021/04/24 16:46:24;;;;;;;4.83;3.93;;;21.20;78.30;;;;;;5111564;28;20564;-78
2021/04/24 16:48:50;;;;;;;5.50;4.10;;;21.10;74.50;;;;;;5111325;28;20250;-78
2021/04/24 16:51:17;;;;;;;5.73;3.83;;;21.00;74.70;;;;;;5108564;28;20264;-70
2021/04/24 16:53:43;;;;;;;5.10;3.90;;;20.90;75.80;;;;;;5087944;28;20212;-70
2021/04/24 16:56:09;;;;;;;4.90;3.93;;;21.00;76.10;;;;;;5071370;28;20182;-70
2021/04/24 16:58:36;;;;;;;5.50;4.43;;;20.90;77.30;;;;;;5072261;28;20173;-70
2021/04/24 17:01:02;;;;;;;5.20;4.27;;;20.90;75.80;;;;;;5069693;28;20181;-70
2021/04/24 17:03:28;;;;;;;4.73;4.10;;;20.70;75.20;;;;;;5074527;28;20201;-68
2021/04/24 17:05:53;;;;;;;4.30;3.47;;;20.70;78.60;;;;;;5073574;28;20268;-71
2021/04/24 17:08:19;;;;;;;5.70;3.10;;;20.70;77.10;;;;;;5076195;28;20232;-72
2021/04/24 17:10:45;;;;;;;3.93;2.90;;;20.70;77.70;;;;;;5071896;28;20691;-71
2021/04/24 17:13:11;;;;;;;5.00;3.13;;;20.70;80.50;;;;;;5072021;28;20177;-69
2021/04/24 17:15:37;;;;;;;3.90;3.10;;;20.70;79.80;;;;;;5082886;28;20259;-70
2021/04/24 17:18:03;;;;;;;5.70;3.50;;;20.60;79.20;;;;;;5080486;28;20236;-72
2021/04/24 17:20:29;;;;;;;5.67;3.10;;;20.60;74.40;;;;;;5105095;28;20172;-70
2021/04/24 17:22:55;;;;;;;5.17;3.33;;;20.50;78.30;;;;;;5101272;28;20176;-72
2021/04/24 17:25:22;;;;;;;4.90;3.60;;;20.40;76.20;;;;;;5095848;28;20242;-71
2021/04/24 17:27:48;;;;;;;5.13;3.97;;;20.30;75.60;;;;;;5096320;28;20203;-72
2021/04/24 17:30:15;;;;;;;4.47;4.03;;;20.10;76.10;;;;;;5096039;28;20172;-71
2021/04/24 17:32:40;;;;;;;3.20;2.90;;;20.00;76.70;;;;;;5074087;28;20174;-71
2021/04/24 17:35:08;;;;;;;4.87;3.27;;;20.00;76.80;;;;;;5064533;28;20178;-70
2021/04/24 17:37:35;;;;;;;4.70;2.70;;;19.90;76.80;;;;;;5069868;28;20203;-70
2021/04/24 17:40:00;;;;;;;6.37;3.00;;;19.80;78.10;;;;;;5057845;28;20177;-71
2021/04/24 17:42:26;;;;;;;4.30;3.90;;;19.80;78.50;;;;;;5080030;28;20193;-71
2021/04/24 17:44:52;;;;;;;4.30;3.37;;;19.80;78.50;;;;;;5071451;28;20268;-72
2021/04/24 17:47:18;;;;;;;4.10;3.27;;;19.70;78.20;;;;;;5071893;28;20663;-73
2021/04/24 17:49:47;;;;;;;3.77;2.93;;;19.70;78.00;;;;;;5074206;28;20185;-73
2021/04/24 17:52:12;;;;;;;4.67;3.57;;;19.60;78.50;;;;;;5067132;28;20299;-73
2021/04/24 17:54:40;;;;;;;3.13;2.80;;;19.60;78.60;;;;;;5061119;28;20182;-73
2021/04/24 17:57:06;;;;;;;3.30;2.83;;;19.50;78.60;;;;;;5072610;28;20201;-74
2021/04/24 17:59:32;;;;;;;4.50;2.90;;;19.50;78.40;;;;;;5061956;28;20525;-73
2021/04/24 18:01:58;;;;;;;8.47;4.43;;;19.40;78.60;;;;;;5070696;28;20188;-73
2021/04/24 18:04:24;;;;;;;4.70;3.40;;;19.40;78.70;;;;;;5066362;28;20189;-73
2021/04/24 18:06:50;;;;;;;5.47;3.90;;;19.30;78.60;;;;;;5071771;28;20662;-73
2021/04/24 18:09:16;;;;;;;4.73;3.60;;;19.20;78.60;;;;;;5066275;28;20223;-73
2021/04/24 18:11:43;;;;;;;6.67;4.37;;;19.20;78.80;;;;;;5070703;28;20525;-72
2021/04/24 18:14:09;;;;;;;3.97;3.10;;;19.10;79.10;;;;;;5080786;28;20714;-73
2021/04/24 18:16:35;;;;;;;5.10;3.17;;;19.00;79.10;;;;;;5077382;28;20201;-73
2021/04/24 18:19:05;;;;;;;4.60;3.77;;;19.10;79.50;;;;;;5067046;28;20174;-74
2021/04/24 18:21:32;;;;;;;5.30;4.33;;;19.00;82.20;;;;;;5068631;28;20178;-72
2021/04/24 18:23:58;;;;;;;5.60;3.67;;;19.00;80.20;;;;;;5064798;28;20178;-73
2021/04/24 18:26:24;;;;;;;4.70;4.20;;;18.90;81.30;;;;;;5079610;28;20678;-73
2021/04/24 18:28:51;;;;;;;7.07;5.43;;;18.90;80.30;;;;;;5077932;28;20192;-72
2021/04/24 18:31:17;;;;;;;6.50;3.70;;;18.80;81.20;;;;;;5070650;28;20205;-74
2021/04/24 18:33:42;;;;;;;5.07;4.07;;;18.70;81.60;;;;;;5068551;28;20181;-73
2021/04/24 18:36:08;;;;;;;4.97;3.83;;;18.60;82.20;;;;;;5068803;28;20260;-73
2021/04/24 18:38:35;;;;;;;5.40;3.63;;;18.50;82.00;;;;;;5070951;28;20223;-73
2021/04/24 18:41:02;;;;;;;5.77;3.90;;;18.40;83.50;;;;;;5076387;28;20544;-72
2021/04/24 18:43:29;;;;;;;6.60;3.87;;;18.40;86.30;;;;;;5074123;28;20208;-72
2021/04/24 18:45:55;;;;;;;6.50;3.70;;;18.30;86.50;;;;;;5070493;28;20554;-72
2021/04/24 18:48:20;;;;;;;9.97;4.40;;;18.20;87.00;;;;;;5076126;28;20209;-73
2021/04/24 18:50:47;;;;;;;4.00;3.60;;;18.10;87.90;;;;;;5057214;28;20659;-72
2021/04/24 18:53:13;;;;;;;5.70;3.90;;;18.00;85.10;;;;;;5060794;28;20173;-72
2021/04/24 18:55:39;;;;;;;5.60;5.10;;;18.00;89.70;;;;;;5058507;28;20177;-73
2021/04/24 18:58:05;;;;;;;8.47;7.50;;;18.00;88.20;;;;;;5069332;28;20270;-73
2021/04/24 19:00:32;;;;;;;10.50;8.93;;;18.00;86.00;;;;;;5063681;28;20173;-73
2021/04/24 19:02:57;;;;;;;17.47;9.33;;;17.80;86.80;;;;;;5068847;28;20662;-74
2021/04/24 19:05:23;;;;;;;11.50;8.77;;;17.70;87.10;;;;;;5067748;28;20185;-73
2021/04/24 19:07:49;;;;;;;7.97;6.83;;;17.70;87.90;;;;;;5066075;28;20534;-73
2021/04/24 19:13:15;;;;;;;9.67;7.20;;;17.70;88.50;;;;;;5069619;28;20227;-73
2021/04/24 19:15:42;;;;;;;9.67;6.23;;;17.70;88.70;;;;;;5070690;28;20177;-73
2021/04/24 19:18:10;;;;;;;6.97;6.20;;;17.60;89.20;;;;;;5064740;28;20205;-73
2021/04/24 19:20:40;;;;;;;6.57;5.40;;;17.50;90.40;;;;;;5067865;28;20296;-73
2021/04/24 19:23:08;;;;;;;6.97;5.50;;;17.40;89.30;;;;;;5063491;28;20185;-72
2021/04/24 19:25:37;;;;;;;6.23;5.63;;;17.40;90.10;;;;;;5066986;28;20184;-72
2021/04/24 19:28:05;;;;;;;7.10;4.70;;;17.30;90.20;;;;;;5073432;28;20283;-73
2021/04/24 19:30:31;;;;;;;7.13;5.00;;;17.30;90.10;;;;;;5066327;28;20686;-73
2021/04/24 19:32:57;;;;;;;6.17;4.90;;;17.20;90.50;;;;;;5059480;28;20199;-72
2021/04/24 19:35:23;;;;;;;6.40;4.10;;;17.10;90.60;;;;;;5057400;28;20182;-73
2021/04/24 19:37:51;;;;;;;4.77;4.27;;;17.10;88.90;;;;;;5069473;28;20205;-74
2021/04/24 19:40:19;;;;;;;6.90;4.37;;;17.10;88.40;;;;;;5070382;28;20188;-73
2021/04/24 19:42:47;;;;;;;4.60;4.13;;;17.10;87.00;;;;;;5075789;28;20207;-73
2021/04/24 19:45:15;;;;;;;4.03;3.63;;;17.10;86.40;;;;;;5067426;28;20191;-73
2021/04/24 19:47:43;;;;;;;4.53;3.87;;;17.10;86.50;;;;;;5070982;28;20199;-73
2021/04/24 19:50:10;;;;;;;7.17;4.00;;;17.10;85.60;;;;;;5072066;28;20265;-73
2021/04/24 19:52:36;;;;;;;4.33;3.83;;;17.00;86.10;;;;;;5065705;28;20644;-73
2021/04/24 19:55:04;;;;;;;7.67;4.10;;;16.90;86.80;;;;;;5057831;28;20188;-73
2021/04/24 19:57:31;;;;;;;7.33;3.90;;;16.80;87.60;;;;;;5058124;28;20200;-74
2021/04/24 19:59:57;;;;;;;6.00;3.67;;;16.80;89.40;;;;;;5063790;28;20263;-74
2021/04/24 20:02:24;;;;;;;4.10;3.80;;;16.70;87.80;;;;;;5064920;28;20188;-73
2021/04/24 20:04:53;;;;;;;6.10;4.13;;;16.70;86.50;;;;;;5068382;28;20658;-74
2021/04/24 20:07:19;;;;;;;5.30;3.73;;;16.70;87.60;;;;;;5066778;28;20274;-73
2021/04/24 20:09:46;;;;;;;5.13;4.23;;;16.60;86.30;;;;;;5065958;28;20189;-70
2021/04/24 20:12:15;;;;;;;7.50;3.90;;;16.60;89.50;;;;;;5070779;28;20789;-72
2021/04/24 20:14:41;;;;;;;4.60;3.80;;;16.50;86.70;;;;;;5086515;22;20306;-70
2021/04/24 20:17:10;;;;;;;5.27;4.03;;;16.40;87.10;;;;;;5053075;28;20222;-70
2021/04/24 20:19:36;;;;;;;9.03;3.97;;;16.30;87.70;;;;;;5070945;28;20169;-71
2021/04/24 20:22:04;;;;;;;4.60;3.53;;;16.30;88.20;;;;;;5071461;28;20663;-70
2021/04/24 20:24:30;;;;;;;5.13;3.60;;;16.20;88.00;;;;;;5070817;28;20253;-70
2021/04/24 20:26:57;;;;;;;5.00;3.20;;;16.10;86.00;;;;;;5063951;28;20540;-70
2021/04/24 20:29:22;;;;;;;5.20;3.40;;;16.10;86.20;;;;;;5058077;28;20170;-71
2021/04/24 20:31:49;;;;;;;6.07;4.07;;;16.00;87.10;;;;;;5057042;28;20197;-71
2021/04/24 20:34:17;;;;;;;4.40;4.00;;;16.00;88.30;;;;;;5059299;28;20193;-71
2021/04/24 20:36:44;;;;;;;8.33;4.17;;;15.90;86.90;;;;;;5055337;28;20591;-70
2021/04/24 20:39:09;;;;;;;4.50;4.10;;;15.90;87.90;;;;;;5062535;28;20632;-71
2021/04/24 20:41:35;;;;;;;5.07;4.30;;;15.90;86.00;;;;;;5051738;28;20166;-70
2021/04/24 20:44:01;;;;;;;7.47;4.40;;;15.80;86.10;;;;;;5051476;28;20739;-70
2021/04/24 20:46:27;;;;;;;6.07;4.03;;;15.80;86.00;;;;;;5053974;28;20178;-71
2021/04/24 20:48:53;;;;;;;8.37;4.43;;;15.70;86.70;;;;;;5056681;28;20173;-71
2021/04/24 20:51:19;;;;;;;5.03;4.53;;;15.70;85.30;;;;;;5051568;28;20190;-70
2021/04/24 20:53:45;;;;;;;5.67;5.07;;;15.60;86.30;;;;;;5064903;28;20197;-70
2021/04/24 20:56:11;;;;;;;8.00;5.10;;;15.60;85.00;;;;;;5058359;28;20181;-71
2021/04/24 20:58:37;;;;;;;7.40;5.60;;;15.60;84.10;;;;;;5054563;28;20177;-70
2021/04/24 21:01:03;;;;;;;9.90;5.27;;;15.50;82.50;;;;;;5055645;28;20181;-70
2021/04/24 21:03:32;;;;;;;7.43;5.40;;;15.40;82.00;;;;;;5055551;28;20602;-70
2021/04/24 21:05:58;;;;;;;6.43;4.63;;;15.40;82.10;;;;;;5055635;28;20584;-70
2021/04/24 21:08:25;;;;;;;7.90;4.83;;;15.30;81.80;;;;;;5050703;28;20609;-70
2021/04/24 21:10:52;;;;;;;5.67;4.80;;;15.30;82.40;;;;;;5057533;28;20196;-70
2021/04/24 21:13:18;;;;;;;8.70;5.00;;;15.20;82.60;;;;;;5075178;28;20211;-70
2021/04/24 21:15:43;;;;;;;8.13;5.23;;;15.10;81.90;;;;;;5075449;28;20248;-70
2021/04/24 21:18:10;;;;;;;6.47;4.90;;;15.10;82.10;;;;;;5075355;28;20250;-70
2021/04/24 21:20:36;;;;;;;5.00;4.40;;;15.10;81.80;;;;;;5057359;28;20271;-70
2021/04/24 21:23:01;;;;;;;7.10;5.27;;;15.00;83.80;;;;;;5057290;28;20767;-71
2021/04/24 21:25:28;;;;;;;5.57;4.90;;;14.90;83.40;;;;;;5075051;28;20204;-71
2021/04/24 21:27:54;;;;;;;6.37;4.77;;;14.80;83.00;;;;;;5057340;28;20200;-70
2021/04/24 21:30:20;;;;;;;6.77;5.23;;;14.80;82.80;;;;;;5074964;28;20260;-71
2021/04/24 21:32:47;;;;;;;7.50;5.30;;;14.80;82.80;;;;;;5057288;28;20589;-70
2021/04/24 21:35:13;;;;;;;6.73;4.37;;;14.80;82.40;;;;;;5074974;28;20174;-70
2021/04/24 21:37:39;;;;;;;7.37;4.10;;;14.80;84.10;;;;;;5074644;28;20211;-70
2021/04/24 21:40:06;;;;;;;5.50;4.30;;;14.70;87.00;;;;;;5074950;28;20199;-68
2021/04/24 21:42:32;;;;;;;6.37;4.20;;;14.60;86.50;;;;;;5074829;28;20176;-70
2021/04/24 21:44:58;;;;;;;6.40;5.03;;;14.60;87.10;;;;;;5074999;28;20283;-71
2021/04/24 21:47:24;;;;;;;5.53;4.80;;;14.50;84.80;;;;;;5074775;28;20252;-71
2021/04/24 21:49:50;;;;;;;6.97;4.87;;;14.50;83.90;;;;;;5074942;28;20223;-71
2021/04/24 21:52:16;;;;;;;5.33;4.37;;;14.40;83.20;;;;;;5074653;28;20181;-70
2021/04/24 21:54:42;;;;;;;10.10;4.53;;;14.30;84.90;;;;;;5074834;28;20272;-70
2021/04/24 21:57:08;;;;;;;11.47;3.90;;;14.30;86.40;;;;;;5074701;28;20539;-70
2021/04/24 21:59:34;;;;;;;7.37;4.50;;;14.20;87.20;;;;;;5074623;28;20190;-71
2021/04/24 22:02:00;;;;;;;5.83;4.57;;;14.20;84.50;;;;;;5074509;28;20180;-70
2021/04/24 22:04:26;;;;;;;8.97;4.77;;;14.20;84.20;;;;;;5074494;28;20199;-71
2021/04/24 22:06:51;;;;;;;6.57;4.60;;;14.20;89.20;;;;;;5074050;28;20172;-71
2021/04/24 22:09:17;;;;;;;7.23;4.97;;;14.10;87.50;;;;;;5055806;28;20178;-70
2021/04/24 22:11:43;;;;;;;6.17;4.67;;;14.20;86.70;;;;;;5073697;28;20196;-70
2021/04/24 22:14:09;;;;;;;6.63;5.00;;;14.10;85.30;;;;;;5073743;28;20255;-71
2021/04/24 22:16:35;;;;;;;5.57;4.97;;;14.00;85.90;;;;;;5060835;28;20193;-70
2021/04/24 22:19:01;;;;;;;6.43;3.97;;;14.00;85.50;;;;;;5056680;28;20180;-71
2021/04/24 22:21:29;;;;;;;6.37;4.40;;;13.90;88.10;;;;;;5055963;28;20233;-71
2021/04/24 22:23:55;;;;;;;9.10;4.20;;;13.80;88.50;;;;;;5056134;28;20198;-71
2021/04/24 22:26:21;;;;;;;5.63;4.10;;;13.70;89.80;;;;;;5071740;28;20181;-70
2021/04/24 22:28:47;;;;;;;4.97;3.97;;;13.50;90.60;;;;;;5073086;28;20169;-70
2021/04/24 22:31:13;;;;;;;5.80;4.40;;;13.60;90.60;;;;;;5053926;28;20671;-70
2021/04/24 22:33:39;;;;;;;6.77;4.57;;;13.50;91.20;;;;;;5059942;28;20200;-70
2021/04/24 22:36:05;;;;;;;8.00;4.93;;;13.40;90.10;;;;;;5049942;28;20528;-69
2021/04/24 22:38:32;;;;;;;6.57;5.80;;;13.40;90.90;;;;;;5053769;28;20177;-71
2021/04/24 22:40:58;;;;;;;7.47;4.50;;;13.30;90.70;;;;;;5053965;28;20584;-70
2021/04/24 22:43:24;;;;;;;5.47;4.97;;;13.30;90.10;;;;;;5053663;28;20273;-71
2021/04/24 22:45:50;;;;;;;6.73;4.97;;;13.20;91.50;;;;;;5071782;28;20165;-70
2021/04/24 22:48:16;;;;;;;5.90;4.30;;;13.10;90.60;;;;;;5073586;28;20169;-71
2021/04/24 22:50:42;;;;;;;8.00;5.20;;;13.20;90.50;;;;;;5073497;28;20192;-70
2021/04/24 22:53:08;;;;;;;8.13;5.23;;;13.10;90.50;;;;;;5055466;28;20267;-70
2021/04/24 22:55:35;;;;;;;8.83;4.80;;;13.10;90.80;;;;;;5073757;28;20182;-70
2021/04/24 22:58:06;;;;;;;10.50;5.57;;;13.10;91.00;;;;;;5073374;28;20173;-70
2021/04/24 23:00:34;;;;;;;7.30;5.17;;;13.10;91.20;;;;;;5068882;28;20183;-70
2021/04/24 23:03:02;;;;;;;7.13;5.50;;;13.10;90.40;;;;;;5073206;28;20212;-70
2021/04/24 23:05:27;;;;;;;6.17;4.80;;;13.00;90.40;;;;;;5073308;28;20173;-70
2021/04/24 23:07:54;;;;;;;5.90;5.07;;;13.00;90.60;;;;;;5073049;28;20233;-70
2021/04/24 23:10:20;;;;;;;5.30;4.80;;;12.80;90.20;;;;;;5069095;28;20177;-70
2021/04/24 23:12:46;;;;;;;6.53;5.17;;;12.80;90.70;;;;;;5053353;28;20189;-71
2021/04/24 23:15:15;;;;;;;4.50;4.10;;;12.80;91.40;;;;;;5038996;28;20786;-69
2021/04/24 23:17:41;;;;;;;7.70;4.77;;;12.80;91.30;;;;;;5053175;28;20177;-70
2021/04/24 23:20:08;;;;;;;4.90;3.87;;;12.70;92.40;;;;;;5052527;28;20257;-69
2021/04/24 23:22:34;;;;;;;7.30;3.63;;;12.70;92.20;;;;;;5052993;28;20186;-70
2021/04/24 23:25:00;;;;;;;7.17;3.73;;;12.60;92.50;;;;;;5042287;28;20204;-70
2021/04/24 23:27:26;;;;;;;4.53;3.70;;;12.40;93.40;;;;;;5052956;28;20197;-71
2021/04/24 23:29:52;;;;;;;4.10;3.70;;;12.30;93.00;;;;;;5052970;28;20643;-70
2021/04/24 23:32:18;;;;;;;5.03;4.00;;;12.20;94.10;;;;;;5052698;28;20198;-70
2021/04/24 23:34:43;;;;;;;6.97;3.87;;;12.10;93.00;;;;;;5046142;28;20186;-70
2021/04/24 23:37:10;;;;;;;5.80;4.00;;;11.80;94.30;;;;;;5052725;28;20173;-69
2021/04/24 23:39:36;;;;;;;5.23;4.17;;;11.80;93.50;;;;;;5052824;28;20177;-70
2021/04/24 23:42:05;;;;;;;6.60;4.93;;;11.80;93.40;;;;;;5041748;28;20174;-71
2021/04/24 23:44:31;;;;;;;5.43;3.83;;;11.80;94.10;;;;;;5052604;28;20553;-72
2021/04/24 23:46:56;;;;;;;6.43;4.20;;;11.80;95.30;;;;;;5051154;28;20253;-72
2021/04/24 23:49:23;;;;;;;6.10;3.73;;;11.80;93.90;;;;;;5052584;28;20235;-72
2021/04/24 23:51:48;;;;;;;5.27;3.87;;;11.70;94.80;;;;;;5052439;28;20194;-72
2021/04/24 23:54:14;;;;;;;7.13;3.97;;;11.80;93.90;;;;;;5052483;28;20193;-72
2021/04/24 23:56:39;;;;;;;10.10;3.80;;;11.70;93.90;;;;;;5052407;28;20220;-71
2021/04/24 23:59:05;;;;;;;4.37;3.83;;;11.50;94.20;;;;;;5052502;28;20180;-72
